Asquith, Canada
Current Conditions -  °F | °C
As of 9:00 PM on Monday 26 Jan 2015 (Local Time) from CYXE Reporting Station
Broken Clouds Broken Clouds  
Wind Chill: 28°   Ceiling: 11000
Heat Index: 34°   Visibility: 15mi
Dew Point: 30°   Wind: 7mph
Humidity: 87%   Direction: 180°S
Pressure: 29.82"   Gusts: NA
Location:  52.12°N, 107.22°W
Report Text: CYXE 270300Z 18006KT 15SM BKN110 01/M01 A2982 RMK AC7 SLP125
Loading
Personal Weather Stations






























Interactive Weather Map New forecast layout! Learn more

10-Day Weather Forecast

Advertisements
Track Severe Weather on mobile